createdAt,value
2023-06-12T00:00:48.666Z,25.00
2023-06-12T00:01:48.683Z,25.00
2023-06-12T00:02:48.886Z,25.00
2023-06-12T00:03:49.137Z,0.00
2023-06-12T00:04:48.992Z,0.00
2023-06-12T00:05:48.790Z,0.00
2023-06-12T00:06:48.843Z,0.00
2023-06-12T00:07:48.850Z,0.00
2023-06-12T00:08:48.892Z,0.00
2023-06-12T00:09:48.920Z,0.00
2023-06-12T00:10:48.967Z,0.00
2023-06-12T00:11:48.994Z,0.00
2023-06-12T00:12:49.043Z,20.36
2023-06-12T00:13:49.183Z,25.00
2023-06-12T00:14:49.099Z,25.00
2023-06-12T00:15:49.143Z,25.00
2023-06-12T00:16:49.319Z,25.86
2023-06-12T00:17:49.330Z,25.90
2023-06-12T00:18:49.245Z,26.17
2023-06-12T00:19:49.281Z,26.68
2023-06-12T00:20:49.364Z,26.18
2023-06-12T00:21:49.392Z,25.28
2023-06-12T00:22:49.400Z,25.87
2023-06-12T00:23:49.463Z,25.18
2023-06-12T00:24:49.481Z,25.05
2023-06-12T00:25:49.509Z,25.60
2023-06-12T00:26:49.552Z,25.24
2023-06-12T00:27:49.612Z,30.86
2023-06-12T00:28:49.653Z,27.43
2023-06-12T00:29:49.680Z,24.89
2023-06-12T00:30:49.720Z,27.19
2023-06-12T00:31:49.858Z,25.00
2023-06-12T00:32:49.855Z,25.47
2023-06-12T00:33:49.830Z,25.00
2023-06-12T00:34:49.879Z,25.10
2023-06-12T00:35:49.901Z,27.33
2023-06-12T00:36:49.958Z,27.48
2023-06-12T00:37:49.994Z,26.78
2023-06-12T00:38:50.030Z,25.81
2023-06-12T00:39:50.070Z,26.66
2023-06-12T00:40:50.128Z,26.72
2023-06-12T00:41:50.153Z,31.05
2023-06-12T00:42:50.195Z,28.30
2023-06-12T00:43:50.232Z,27.13
2023-06-12T00:44:50.274Z,25.67
2023-06-12T00:45:50.420Z,28.08
2023-06-12T00:46:50.360Z,27.73
2023-06-12T00:47:50.437Z,26.49
2023-06-12T00:48:50.435Z,27.59
2023-06-12T00:49:50.471Z,28.11
2023-06-12T00:50:50.516Z,27.48
2023-06-12T00:51:50.565Z,25.00
2023-06-12T00:52:50.592Z,25.95
2023-06-12T00:53:50.627Z,28.59
2023-06-12T00:54:50.664Z,28.42
2023-06-12T00:55:50.701Z,28.20
2023-06-12T00:56:50.758Z,25.00
2023-06-12T00:57:50.791Z,26.69
2023-06-12T00:58:50.820Z,29.21
2023-06-12T00:59:50.850Z,30.36
2023-06-12T01:00:50.951Z,28.10
2023-06-12T01:01:50.949Z,25.79
2023-06-12T01:02:51.024Z,27.11
2023-06-12T01:03:50.996Z,28.93
2023-06-12T01:04:51.038Z,26.32
2023-06-12T01:05:51.072Z,25.77
2023-06-12T01:06:51.115Z,29.56
2023-06-12T01:07:51.153Z,27.11
2023-06-12T01:08:51.198Z,28.63
2023-06-12T01:09:51.233Z,27.69
2023-06-12T01:10:51.276Z,25.37
2023-06-12T01:11:51.322Z,27.86
2023-06-12T01:12:51.371Z,27.48
2023-06-12T01:13:51.428Z,27.27
2023-06-12T01:14:51.460Z,30.88
2023-06-12T01:15:51.489Z,29.77
2023-06-12T01:16:51.574Z,26.08
2023-06-12T01:17:51.601Z,29.11
2023-06-12T01:18:51.617Z,28.64
2023-06-12T01:19:51.670Z,27.80
2023-06-12T01:20:51.704Z,25.27
2023-06-12T01:21:51.754Z,26.72
2023-06-12T01:22:51.794Z,28.95
2023-06-12T01:23:51.967Z,28.56
2023-06-12T01:24:51.876Z,27.33
2023-06-12T01:25:51.912Z,25.40
2023-06-12T01:26:51.952Z,28.27
2023-06-12T01:27:51.994Z,27.85
2023-06-12T01:28:52.038Z,28.64
2023-06-12T01:29:52.079Z,27.56
2023-06-12T01:30:52.116Z,25.33
2023-06-12T01:31:52.288Z,26.92
2023-06-12T01:32:52.272Z,29.05
2023-06-12T01:33:52.269Z,27.12
2023-06-12T01:34:52.516Z,27.00
2023-06-12T01:35:52.316Z,27.56
2023-06-12T01:36:52.374Z,28.83
2023-06-12T01:37:52.401Z,27.50
2023-06-12T01:38:52.432Z,28.70
2023-06-12T01:39:52.480Z,28.70
2023-06-12T01:40:52.514Z,29.75
2023-06-12T01:41:52.558Z,28.69
2023-06-12T01:42:52.625Z,25.83
2023-06-12T01:43:52.631Z,28.46
2023-06-12T01:44:52.673Z,26.71
2023-06-12T01:45:52.719Z,26.38
2023-06-12T01:46:52.780Z,30.01
2023-06-12T01:47:52.911Z,30.46
2023-06-12T01:48:52.861Z,26.56
2023-06-12T01:49:52.918Z,25.73
2023-06-12T01:50:52.935Z,26.04
2023-06-12T01:51:52.980Z,27.28
2023-06-12T01:52:53.021Z,28.79
2023-06-12T01:53:53.058Z,29.95
2023-06-12T01:54:53.106Z,26.47
2023-06-12T01:55:53.160Z,28.28
2023-06-12T01:56:53.207Z,28.87
2023-06-12T01:57:53.288Z,27.86
2023-06-12T01:58:53.287Z,28.33
2023-06-12T01:59:53.329Z,26.69
2023-06-12T02:00:53.370Z,27.65
2023-06-12T02:01:53.473Z,27.99
2023-06-12T02:02:53.465Z,27.58
2023-06-12T02:03:53.562Z,28.28
2023-06-12T02:04:53.548Z,30.64
2023-06-12T02:05:53.612Z,28.14
2023-06-12T02:06:53.626Z,28.90
2023-06-12T02:07:53.674Z,27.94
2023-06-12T02:08:53.699Z,26.44
2023-06-12T02:09:53.739Z,30.26
2023-06-12T02:10:53.781Z,28.34
2023-06-12T02:11:53.823Z,26.91
2023-06-12T02:12:53.863Z,28.57
2023-06-12T02:13:53.904Z,28.80
2023-06-12T02:14:53.947Z,31.69
2023-06-12T02:15:54.031Z,26.55
2023-06-12T02:16:54.028Z,30.18
2023-06-12T02:17:54.138Z,30.06
2023-06-12T02:18:54.133Z,31.20
2023-06-12T02:19:54.163Z,28.15
2023-06-12T02:20:54.227Z,31.78
2023-06-12T02:21:54.285Z,31.04
2023-06-12T02:22:54.319Z,28.26
2023-06-12T02:23:54.432Z,31.44
2023-06-12T02:24:54.390Z,29.18
2023-06-12T02:25:54.441Z,26.85
2023-06-12T02:26:54.492Z,28.18
2023-06-12T02:27:54.540Z,28.28
2023-06-12T02:28:54.580Z,28.63
2023-06-12T02:29:54.622Z,28.00
2023-06-12T02:30:54.679Z,25.24
2023-06-12T02:31:54.770Z,26.38
2023-06-12T02:32:54.799Z,28.81
2023-06-12T02:33:54.802Z,27.10
2023-06-12T02:34:54.850Z,25.93
2023-06-12T02:35:54.893Z,30.08
2023-06-12T02:36:54.934Z,28.72
2023-06-12T02:37:55.024Z,28.73
2023-06-12T02:38:55.029Z,28.86
2023-06-12T02:39:55.078Z,27.55
2023-06-12T02:40:55.127Z,27.52
2023-06-12T02:41:55.178Z,28.15
2023-06-12T02:42:55.244Z,31.96
2023-06-12T02:43:55.274Z,28.27
2023-06-12T02:44:55.327Z,28.31
2023-06-12T02:45:55.392Z,28.64
2023-06-12T02:46:55.453Z,28.79
2023-06-12T02:47:55.500Z,28.35
2023-06-12T02:48:55.537Z,28.71
2023-06-12T02:49:55.610Z,27.64
2023-06-12T02:50:55.634Z,33.84
2023-06-12T02:51:55.690Z,29.88
2023-06-12T02:52:55.731Z,28.22
2023-06-12T02:53:55.860Z,28.55
2023-06-12T02:54:55.830Z,28.70
2023-06-12T02:55:55.878Z,26.91
2023-06-12T02:56:55.939Z,25.89
2023-06-12T02:57:55.987Z,29.22
2023-06-12T02:58:56.032Z,28.34
2023-06-12T02:59:56.078Z,29.19
2023-06-12T03:00:56.150Z,25.99
2023-06-12T03:01:56.180Z,30.61
2023-06-12T03:02:56.274Z,25.00
2023-06-12T03:03:56.385Z,27.15
2023-06-12T03:04:56.320Z,27.77
2023-06-12T03:05:56.368Z,29.73
2023-06-12T03:06:56.419Z,30.31
2023-06-12T03:07:56.476Z,28.11
2023-06-12T03:08:56.516Z,25.73
2023-06-12T03:09:56.591Z,28.93
2023-06-12T03:10:56.617Z,31.09
2023-06-12T03:11:56.666Z,27.92
2023-06-12T03:12:56.717Z,28.33
2023-06-12T03:13:56.768Z,27.95
2023-06-12T03:14:56.810Z,29.55
2023-06-12T03:15:56.876Z,28.28
2023-06-12T03:16:56.905Z,27.03
2023-06-12T03:17:56.993Z,30.24
2023-06-12T03:18:57.016Z,27.28
2023-06-12T03:19:57.051Z,26.39
2023-06-12T03:20:57.113Z,27.76
2023-06-12T03:21:57.145Z,29.99
2023-06-12T03:22:57.195Z,26.64
2023-06-12T03:23:57.268Z,28.64
2023-06-12T03:24:57.280Z,30.00
2023-06-12T03:25:57.351Z,31.31
2023-06-12T03:26:57.378Z,31.90
2023-06-12T03:27:57.454Z,27.47
2023-06-12T03:28:57.478Z,28.21
2023-06-12T03:29:57.529Z,26.64
2023-06-12T03:30:57.606Z,27.65
2023-06-12T03:31:57.624Z,28.24
2023-06-12T03:32:57.838Z,28.66
2023-06-12T03:33:57.721Z,25.00
2023-06-12T03:34:57.778Z,28.38
2023-06-12T03:35:57.823Z,29.52
2023-06-12T03:36:57.871Z,29.61
2023-06-12T03:37:57.921Z,28.79
2023-06-12T03:38:57.974Z,29.37
2023-06-12T03:39:58.023Z,30.18
2023-06-12T03:40:58.093Z,26.53
2023-06-12T03:41:58.146Z,29.11
2023-06-12T03:42:58.199Z,28.62
2023-06-12T03:43:58.234Z,27.15
2023-06-12T03:44:58.287Z,27.47
2023-06-12T03:45:58.333Z,30.03
2023-06-12T03:46:58.439Z,31.36
2023-06-12T03:47:58.487Z,33.19
2023-06-12T03:48:58.485Z,29.06
2023-06-12T03:49:58.523Z,28.75
2023-06-12T03:50:58.564Z,28.41
2023-06-12T03:51:58.608Z,30.46
2023-06-12T03:52:58.661Z,28.90
2023-06-12T03:53:58.725Z,29.26
2023-06-12T03:54:58.748Z,32.11
2023-06-12T03:55:58.797Z,29.49
2023-06-12T03:56:58.857Z,26.84
2023-06-12T03:57:58.917Z,29.17
2023-06-12T03:58:58.937Z,30.77
2023-06-12T03:59:58.985Z,33.27
2023-06-12T04:00:59.025Z,30.74
2023-06-12T04:01:59.102Z,29.06
2023-06-12T04:02:59.208Z,27.75
2023-06-12T04:03:59.220Z,26.66
2023-06-12T04:04:59.234Z,31.96
2023-06-12T04:05:59.287Z,28.21
2023-06-12T04:06:59.310Z,27.83
2023-06-12T04:07:59.367Z,30.61
2023-06-12T04:08:59.403Z,28.17
2023-06-12T04:09:59.453Z,26.57
2023-06-12T04:10:59.504Z,26.72
2023-06-12T04:11:59.561Z,30.23
2023-06-12T04:12:59.610Z,26.64
2023-06-12T04:13:59.688Z,28.17
2023-06-12T04:14:59.711Z,29.73
2023-06-12T04:15:59.787Z,26.95
2023-06-12T04:16:59.821Z,28.56
2023-06-12T04:17:59.917Z,27.87
2023-06-12T04:18:59.908Z,28.09
2023-06-12T04:19:59.953Z,29.75
2023-06-12T04:21:00.010Z,31.57
2023-06-12T04:22:00.068Z,29.55
2023-06-12T04:23:00.139Z,28.52
2023-06-12T04:24:00.236Z,29.62
2023-06-12T04:25:00.219Z,25.65
2023-06-12T04:26:00.253Z,27.29
2023-06-12T04:27:00.303Z,27.73
2023-06-12T04:28:00.354Z,28.22
2023-06-12T04:29:00.417Z,28.65
2023-06-12T04:30:00.489Z,26.49
2023-06-12T04:31:00.520Z,29.59
2023-06-12T04:32:00.781Z,26.67
2023-06-12T04:33:00.638Z,28.23
2023-06-12T04:34:00.653Z,29.95
2023-06-12T04:35:00.690Z,30.13
2023-06-12T04:36:00.734Z,28.60
2023-06-12T04:37:00.797Z,28.27
2023-06-12T04:38:00.840Z,28.13
2023-06-12T04:39:00.901Z,31.20
2023-06-12T04:40:00.937Z,29.44
2023-06-12T04:41:01.030Z,31.47
2023-06-12T04:42:01.037Z,28.73
2023-06-12T04:43:01.087Z,29.54
2023-06-12T04:44:01.142Z,30.91
2023-06-12T04:45:01.203Z,30.53
2023-06-12T04:46:01.272Z,31.78
2023-06-12T04:47:01.295Z,27.68
2023-06-12T04:48:01.417Z,29.80
2023-06-12T04:49:01.440Z,30.43
2023-06-12T04:50:01.456Z,33.26
2023-06-12T04:51:01.510Z,29.56
2023-06-12T04:52:01.554Z,29.06
2023-06-12T04:53:01.586Z,27.44
2023-06-12T04:54:04.739Z,27.44
2023-06-12T04:55:01.650Z,27.74
2023-06-12T04:56:01.650Z,28.22
2023-06-12T04:57:01.664Z,29.09
2023-06-12T04:58:01.683Z,30.86
2023-06-12T04:59:01.689Z,28.42
2023-06-12T05:00:01.695Z,31.41
2023-06-12T05:01:02.281Z,26.73
2023-06-12T05:02:01.841Z,27.33
2023-06-12T05:03:01.870Z,29.07
2023-06-12T05:04:01.950Z,28.96
2023-06-12T05:05:01.933Z,27.59
2023-06-12T05:06:01.979Z,28.71
2023-06-12T05:07:02.025Z,31.08
2023-06-12T05:08:02.102Z,26.91
2023-06-12T05:09:02.117Z,29.37
2023-06-12T05:10:02.165Z,26.61
2023-06-12T05:11:02.219Z,28.66
2023-06-12T05:12:02.282Z,27.12
2023-06-12T05:13:02.326Z,28.49
2023-06-12T05:14:02.371Z,27.49
2023-06-12T05:15:02.426Z,25.00
2023-06-12T05:16:02.542Z,27.66
2023-06-12T05:17:02.719Z,27.27
2023-06-12T05:18:02.651Z,25.50
2023-06-12T05:19:02.634Z,25.74
2023-06-12T05:20:02.760Z,25.00
2023-06-12T05:21:02.734Z,25.00
2023-06-12T05:22:03.255Z,27.61
2023-06-12T05:23:03.236Z,26.65
2023-06-12T05:24:02.987Z,25.51
2023-06-12T05:25:06.183Z,24.85
2023-06-12T05:26:02.998Z,24.37
2023-06-12T05:27:03.010Z,13.93
2023-06-12T05:28:03.250Z,9.32
2023-06-12T05:29:03.038Z,6.12
2023-06-12T05:30:03.057Z,3.43
2023-06-12T05:31:03.191Z,26.28
2023-06-12T05:32:03.087Z,26.46
2023-06-12T05:33:04.329Z,25.81
2023-06-12T05:34:03.144Z,29.48
2023-06-12T05:35:03.130Z,28.40
2023-06-12T05:36:03.161Z,27.56
2023-06-12T05:37:03.190Z,26.76
2023-06-12T05:38:03.186Z,25.00
2023-06-12T05:39:05.619Z,26.59
2023-06-12T05:40:03.268Z,26.76
2023-06-12T05:41:03.291Z,27.58
2023-06-12T05:42:03.335Z,26.95
2023-06-12T05:43:03.743Z,24.07
2023-06-12T05:44:03.331Z,19.90
2023-06-12T05:45:03.343Z,26.22
2023-06-12T05:46:03.370Z,25.22
2023-06-12T05:47:03.359Z,28.85
2023-06-12T05:48:03.792Z,29.50
2023-06-12T05:49:03.412Z,30.70
2023-06-12T05:50:07.028Z,29.83
2023-06-12T05:51:03.438Z,29.88
2023-06-12T05:52:03.456Z,30.09
2023-06-12T05:53:10.893Z,25.42
2023-06-12T05:54:03.701Z,29.91
2023-06-12T05:55:04.376Z,29.96
2023-06-12T05:56:05.288Z,30.83
2023-06-12T05:58:07.347Z,30.27
2023-06-12T05:59:03.591Z,30.50
2023-06-12T06:01:06.803Z,30.32
2023-06-12T06:02:11.042Z,30.43
2023-06-12T06:03:35.707Z,30.38
2023-06-12T06:04:07.211Z,30.50
2023-06-12T06:06:11.054Z,30.33
2023-06-12T06:08:19.301Z,30.36
2023-06-12T06:09:03.759Z,30.53
2023-06-12T06:11:11.194Z,30.06
2023-06-12T06:12:03.700Z,30.14
2023-06-12T06:14:19.480Z,29.86
2023-06-12T06:15:12.075Z,29.90
2023-06-12T06:16:19.686Z,29.96
2023-06-12T06:17:04.055Z,30.07
2023-06-12T06:18:04.046Z,26.54
2023-06-12T06:19:04.321Z,11.40
2023-06-12T06:20:03.978Z,7.15
2023-06-12T06:21:03.958Z,0.13
2023-06-12T06:22:03.856Z,23.73
2023-06-12T06:23:11.880Z,25.24
2023-06-12T06:24:07.276Z,25.43
2023-06-12T06:25:04.377Z,25.49
2023-06-12T06:26:04.178Z,23.10
2023-06-12T06:27:03.922Z,19.52
2023-06-12T06:28:04.376Z,13.88
2023-06-12T06:29:12.726Z,11.31
2023-06-12T06:30:03.987Z,21.34
2023-06-12T06:31:07.533Z,15.33
2023-06-12T06:32:04.370Z,15.30
2023-06-12T06:33:04.345Z,6.30
2023-06-12T06:34:03.965Z,0.00
2023-06-12T06:35:11.971Z,0.00
2023-06-12T06:36:04.298Z,0.00
2023-06-12T06:37:04.024Z,0.00
2023-06-12T06:38:04.288Z,0.00
2023-06-12T06:39:19.703Z,0.00
2023-06-12T06:40:04.294Z,0.00
2023-06-12T06:41:04.118Z,0.00
2023-06-12T06:42:04.137Z,0.00
2023-06-12T06:43:04.210Z,0.00
2023-06-12T06:44:04.349Z,0.00
2023-06-12T06:45:04.207Z,0.00
2023-06-12T06:46:06.549Z,23.39
2023-06-12T06:47:11.569Z,23.46
2023-06-12T06:48:04.549Z,23.66
2023-06-12T06:49:04.320Z,23.57
2023-06-12T06:50:04.399Z,23.22
2023-06-12T06:51:04.286Z,13.58
2023-06-12T06:52:04.315Z,16.46
2023-06-12T06:53:04.278Z,10.78
2023-06-12T06:54:07.449Z,25.00
2023-06-12T06:55:04.200Z,25.05
2023-06-12T06:56:11.741Z,23.36
2023-06-12T06:57:04.224Z,25.25
2023-06-12T06:58:04.250Z,25.30
2023-06-12T06:59:04.267Z,22.06
2023-06-12T07:00:04.250Z,13.53
2023-06-12T07:01:04.367Z,17.93
2023-06-12T07:02:04.265Z,28.01
2023-06-12T07:03:04.878Z,27.99
2023-06-12T07:04:04.365Z,25.00
2023-06-12T07:05:04.311Z,27.43
2023-06-12T07:06:04.314Z,28.62
2023-06-12T07:07:04.373Z,30.10
2023-06-12T07:08:04.776Z,28.73
2023-06-12T07:09:04.338Z,25.00
2023-06-12T07:10:04.371Z,30.52
2023-06-12T07:11:04.811Z,30.89
2023-06-12T07:12:04.379Z,32.74
2023-06-12T07:13:04.782Z,31.42
2023-06-12T07:14:04.433Z,29.28
2023-06-12T07:15:04.432Z,30.46
2023-06-12T07:16:04.491Z,28.51
2023-06-12T07:17:04.465Z,28.03
2023-06-12T07:18:04.913Z,32.62
2023-06-12T07:19:04.803Z,33.07
2023-06-12T07:20:04.512Z,31.52
2023-06-12T07:21:04.626Z,34.20
2023-06-12T07:22:04.557Z,34.00
2023-06-12T07:23:04.556Z,27.70
2023-06-12T07:24:05.519Z,25.88
2023-06-12T07:25:04.581Z,28.14
2023-06-12T07:26:18.638Z,28.87
2023-06-12T07:27:04.657Z,29.01
2023-06-12T07:28:04.789Z,28.99
2023-06-12T07:29:04.802Z,29.15
2023-06-12T07:30:04.791Z,25.49
2023-06-12T07:31:05.776Z,26.78
2023-06-12T07:32:04.789Z,27.32
2023-06-12T07:33:04.846Z,33.77
2023-06-12T07:34:07.702Z,40.17
2023-06-12T07:35:05.052Z,40.56
2023-06-12T07:36:05.784Z,42.72
2023-06-12T07:37:04.870Z,48.51
2023-06-12T07:38:12.852Z,56.87
2023-06-12T07:39:08.154Z,41.54
2023-06-12T07:40:12.232Z,41.95
2023-06-12T07:41:05.320Z,42.07
2023-06-12T07:42:04.925Z,42.38
2023-06-12T07:43:06.300Z,49.48
2023-06-12T07:44:04.919Z,42.42
2023-06-12T07:45:04.889Z,50.93
2023-06-12T07:46:05.315Z,65.98
2023-06-12T07:47:04.951Z,87.42
2023-06-12T07:48:05.408Z,115.49
2023-06-12T07:49:05.911Z,120.78
2023-06-12T07:50:04.936Z,126.54
2023-06-12T07:51:12.338Z,134.26
2023-06-12T07:52:04.981Z,134.53
2023-06-12T07:53:36.396Z,136.25
2023-06-12T07:56:12.326Z,135.53
2023-06-12T07:57:04.942Z,135.66
2023-06-12T07:59:04.964Z,135.67
2023-06-12T08:00:04.965Z,140.79
2023-06-12T08:01:04.948Z,147.19
2023-06-12T08:02:05.072Z,156.44
2023-06-12T08:03:20.732Z,162.40
2023-06-12T08:04:05.163Z,135.48
2023-06-12T08:05:04.976Z,139.66
2023-06-12T08:06:05.393Z,146.70
2023-06-12T08:07:05.078Z,156.38
2023-06-12T08:08:05.321Z,166.34
2023-06-12T08:09:04.973Z,159.79
2023-06-12T08:10:04.987Z,155.43
2023-06-12T08:11:05.311Z,147.10
2023-06-12T08:12:05.050Z,137.29
2023-06-12T08:13:05.755Z,133.94
2023-06-12T08:14:05.025Z,130.82
2023-06-12T08:15:05.015Z,131.22
2023-06-12T08:16:04.985Z,128.17
2023-06-12T08:17:05.330Z,133.05
2023-06-12T08:18:05.073Z,137.95
2023-06-12T08:19:05.008Z,153.99
2023-06-12T08:20:04.986Z,157.90
2023-06-12T08:21:04.989Z,161.61
2023-06-12T08:22:06.330Z,164.17
2023-06-12T08:23:05.322Z,164.76
2023-06-12T08:24:05.059Z,165.02
2023-06-12T08:25:05.125Z,167.85
2023-06-12T08:26:05.165Z,167.63
2023-06-12T08:27:05.234Z,158.65
2023-06-12T08:28:05.409Z,162.17
2023-06-12T08:29:05.385Z,163.31
2023-06-12T08:30:05.460Z,157.58
2023-06-12T08:31:05.738Z,156.61
2023-06-12T08:32:05.597Z,154.34
2023-06-12T08:33:05.736Z,144.31
2023-06-12T08:34:05.834Z,137.37
2023-06-12T08:35:05.817Z,137.13
2023-06-12T08:36:06.327Z,136.47
2023-06-12T08:37:05.959Z,151.01
2023-06-12T08:38:06.026Z,160.32
2023-06-12T08:39:06.100Z,158.37
2023-06-12T08:40:06.173Z,160.35
2023-06-12T08:41:06.376Z,163.23
2023-06-12T08:42:09.499Z,160.77
2023-06-12T08:43:09.511Z,160.20
2023-06-12T08:44:06.302Z,161.08
2023-06-12T08:45:20.913Z,160.78
2023-06-12T08:46:06.358Z,161.20
2023-06-12T08:47:07.313Z,161.61
2023-06-12T08:48:13.680Z,163.71
2023-06-12T08:49:09.499Z,161.22
2023-06-12T08:50:09.482Z,161.42
2023-06-12T08:51:06.381Z,161.38
2023-06-12T08:52:06.276Z,163.28
2023-06-12T08:53:06.286Z,165.58
2023-06-12T08:55:07.286Z,161.24
2023-06-12T08:56:06.366Z,161.33
2023-06-12T08:57:06.254Z,161.75
2023-06-12T08:58:06.306Z,163.98
2023-06-12T08:59:07.316Z,170.44
2023-06-12T09:00:06.285Z,173.81
2023-06-12T09:01:06.260Z,172.39
2023-06-12T09:02:14.484Z,179.98
2023-06-12T09:03:06.404Z,180.42
2023-06-12T09:04:06.370Z,182.23
2023-06-12T09:05:06.736Z,185.19
2023-06-12T09:06:06.282Z,188.23
2023-06-12T09:07:06.250Z,194.74
2023-06-12T09:08:06.343Z,185.41
2023-06-12T09:09:06.243Z,186.48
2023-06-12T09:10:14.368Z,178.09
2023-06-12T09:11:06.233Z,178.11
2023-06-12T09:12:06.206Z,167.23
2023-06-12T09:13:06.327Z,161.01
2023-06-12T09:14:06.195Z,148.92
2023-06-12T09:15:06.199Z,136.91
2023-06-12T09:16:06.346Z,145.19
2023-06-12T09:17:06.184Z,150.19
2023-06-12T09:18:06.239Z,149.69
2023-06-12T09:19:06.500Z,151.37
2023-06-12T09:20:06.154Z,157.29
2023-06-12T09:21:06.331Z,161.48
2023-06-12T09:22:06.153Z,166.25
2023-06-12T09:23:06.180Z,162.62
2023-06-12T09:24:06.381Z,163.27
2023-06-12T09:25:06.134Z,171.10
2023-06-12T09:27:06.103Z,174.16
2023-06-12T09:28:06.249Z,177.00
2023-06-12T09:29:06.342Z,181.52
2023-06-12T09:30:06.105Z,179.59
2023-06-12T09:31:37.982Z,170.20
2023-06-12T09:32:06.138Z,173.82
2023-06-12T09:33:06.390Z,174.39
2023-06-12T09:34:06.333Z,174.87
2023-06-12T09:35:06.161Z,179.16
2023-06-12T09:36:21.722Z,180.26
2023-06-12T09:37:06.337Z,174.30
2023-06-12T09:38:21.971Z,176.31
2023-06-12T09:39:21.608Z,174.18
2023-06-12T09:40:05.985Z,174.46
2023-06-12T09:42:06.005Z,174.62
2023-06-12T09:43:06.340Z,177.67
2023-06-12T09:44:05.946Z,180.82
2023-06-12T09:45:05.931Z,186.43
2023-06-12T09:46:13.342Z,194.15
2023-06-12T09:47:06.952Z,174.60
2023-06-12T09:48:05.969Z,174.83
2023-06-12T09:49:05.890Z,179.11
2023-06-12T09:50:05.894Z,184.22
2023-06-12T09:51:05.974Z,192.67
2023-06-12T09:52:05.868Z,201.41
2023-06-12T09:53:06.341Z,199.39
2023-06-12T09:54:05.842Z,201.27
2023-06-12T09:55:05.848Z,194.49
2023-06-12T09:56:05.829Z,191.21
2023-06-12T09:57:05.820Z,193.14
2023-06-12T09:58:05.878Z,197.72
2023-06-12T09:59:05.829Z,187.66
2023-06-12T10:00:05.843Z,177.77
2023-06-12T10:01:05.803Z,180.65
2023-06-12T10:02:05.830Z,178.66
2023-06-12T10:03:05.798Z,157.94
2023-06-12T10:04:05.780Z,171.08
2023-06-12T10:05:05.732Z,168.49
2023-06-12T10:06:05.753Z,164.60
2023-06-12T10:07:05.733Z,174.60
2023-06-12T10:08:05.850Z,165.17
2023-06-12T10:09:05.687Z,163.97
2023-06-12T10:10:05.676Z,160.19
2023-06-12T10:11:05.659Z,169.63
2023-06-12T10:12:05.645Z,183.47
2023-06-12T10:13:05.634Z,194.50
2023-06-12T10:14:05.852Z,213.59
2023-06-12T10:15:05.664Z,224.72
2023-06-12T10:16:08.987Z,221.08
2023-06-12T10:17:05.594Z,221.72
2023-06-12T10:18:06.698Z,225.51
2023-06-12T10:19:05.896Z,238.94
2023-06-12T10:20:05.565Z,256.30
2023-06-12T10:21:12.996Z,290.73
2023-06-12T10:22:08.841Z,223.36
2023-06-12T10:23:05.535Z,224.48
2023-06-12T10:24:13.317Z,234.73
2023-06-12T10:25:13.344Z,224.17
2023-06-12T10:26:05.861Z,224.04
2023-06-12T10:27:05.476Z,229.31
2023-06-12T10:28:05.484Z,229.61
2023-06-12T10:29:05.857Z,209.19
2023-06-12T10:30:08.712Z,169.22
2023-06-12T10:31:05.892Z,98.38
2023-06-12T10:32:06.031Z,102.61
2023-06-12T10:33:05.491Z,101.36
2023-06-12T10:34:05.456Z,112.81
2023-06-12T10:35:05.428Z,129.62
2023-06-12T10:36:05.407Z,125.20
2023-06-12T10:37:05.406Z,117.15
2023-06-12T10:38:12.864Z,124.96
2023-06-12T10:39:05.788Z,107.23
2023-06-12T10:40:05.917Z,96.95
2023-06-12T10:41:05.362Z,96.19
2023-06-12T10:42:05.347Z,96.94
2023-06-12T10:43:05.336Z,92.64
2023-06-12T10:44:05.314Z,90.06
2023-06-12T10:45:05.292Z,86.52
2023-06-12T10:46:05.349Z,74.31
2023-06-12T10:47:05.281Z,66.82
2023-06-12T10:48:05.568Z,69.05
2023-06-12T10:49:05.243Z,71.36
2023-06-12T10:50:05.255Z,75.37
2023-06-12T10:51:05.208Z,67.70
2023-06-12T10:52:05.188Z,68.89
2023-06-12T10:53:05.422Z,44.01
2023-06-12T10:54:05.404Z,52.77
2023-06-12T10:55:05.126Z,48.93
2023-06-12T10:56:05.137Z,56.84
2023-06-12T10:57:05.419Z,48.98
2023-06-12T10:58:05.073Z,59.46
2023-06-12T10:59:05.385Z,58.03
2023-06-12T11:00:05.045Z,59.73
2023-06-12T11:01:05.093Z,33.93
2023-06-12T11:02:05.247Z,42.26
2023-06-12T11:03:05.544Z,40.96
2023-06-12T11:04:05.131Z,44.47
2023-06-12T11:05:05.045Z,38.50
2023-06-12T11:06:05.051Z,38.26
2023-06-12T11:07:05.002Z,35.03
2023-06-12T11:08:05.405Z,30.49
2023-06-12T11:09:04.914Z,27.66
2023-06-12T11:10:04.885Z,25.00
2023-06-12T11:11:04.825Z,26.08
2023-06-12T11:12:04.834Z,37.00
2023-06-12T11:13:04.902Z,28.58
2023-06-12T11:14:04.881Z,29.00
2023-06-12T11:15:04.908Z,25.00
2023-06-12T11:16:04.939Z,25.00
2023-06-12T11:17:05.080Z,36.22
2023-06-12T11:18:05.065Z,50.88
2023-06-12T11:19:05.025Z,59.24
2023-06-12T11:20:05.423Z,63.53
2023-06-12T11:21:04.979Z,65.16
2023-06-12T11:22:05.420Z,68.70
2023-06-12T11:23:04.996Z,71.86
2023-06-12T11:24:05.038Z,68.06
2023-06-12T11:25:05.437Z,66.32
2023-06-12T11:26:05.045Z,57.15
2023-06-12T11:27:05.055Z,62.64
2023-06-12T11:28:05.441Z,75.87
2023-06-12T11:29:05.045Z,74.22
2023-06-12T11:30:23.128Z,58.20
2023-06-12T11:31:10.163Z,58.48
2023-06-12T11:32:05.051Z,58.08
2023-06-12T11:33:08.681Z,46.45
2023-06-12T11:34:08.233Z,52.76
2023-06-12T11:35:04.978Z,50.77
2023-06-12T11:36:04.996Z,52.44
2023-06-12T11:37:04.945Z,56.13
2023-06-12T11:40:03.907Z,49.58
2023-06-12T11:41:04.890Z,33.88
2023-06-12T11:42:04.887Z,52.25
2023-06-12T11:43:04.923Z,64.61
2023-06-12T11:44:04.843Z,86.86
2023-06-12T11:45:04.822Z,89.37
2023-06-12T11:46:05.079Z,71.56
2023-06-12T11:50:03.774Z,77.20
2023-06-12T11:51:04.891Z,86.70
2023-06-12T11:52:04.727Z,109.49
2023-06-12T11:53:04.704Z,142.00
2023-06-12T11:54:04.707Z,196.06
2023-06-12T11:57:04.580Z,215.49
2023-06-12T11:58:04.761Z,224.56
2023-06-12T11:59:04.638Z,240.80
2023-06-12T12:00:04.607Z,263.13
2023-06-12T12:01:04.902Z,304.96
2023-06-12T12:02:04.673Z,251.33
2023-06-12T12:03:04.949Z,248.72
2023-06-12T12:04:04.638Z,246.56
2023-06-12T12:05:04.589Z,239.55
2023-06-12T12:06:04.516Z,228.63
2023-06-12T12:07:04.506Z,222.68
2023-06-12T12:08:04.489Z,229.98
2023-06-12T12:09:04.473Z,224.92
2023-06-12T12:10:04.455Z,225.72
2023-06-12T12:11:04.953Z,223.31
2023-06-12T12:12:04.412Z,223.69
2023-06-12T12:13:04.408Z,225.89
2023-06-12T12:14:04.402Z,230.66
2023-06-12T12:15:04.385Z,227.96
2023-06-12T12:16:04.391Z,236.25
2023-06-12T12:17:04.339Z,233.76
2023-06-12T12:18:04.451Z,233.89
2023-06-12T12:19:04.333Z,233.36
2023-06-12T12:20:05.266Z,238.86
2023-06-12T12:21:04.259Z,244.35
2023-06-12T12:22:04.237Z,247.81
2023-06-12T12:23:04.218Z,240.03
2023-06-12T12:24:04.262Z,228.43
2023-06-12T12:25:04.177Z,218.11
2023-06-12T12:26:04.174Z,210.98
2023-06-12T12:27:04.143Z,208.54
2023-06-12T12:28:04.180Z,205.36
2023-06-12T12:29:04.126Z,200.12
2023-06-12T12:30:04.114Z,198.39
2023-06-12T12:31:04.075Z,200.19
2023-06-12T12:32:04.074Z,189.60
2023-06-12T12:33:04.063Z,189.70
2023-06-12T12:34:04.021Z,182.55
2023-06-12T12:35:04.025Z,179.32
2023-06-12T12:36:04.004Z,178.77
2023-06-12T12:37:03.928Z,176.18
2023-06-12T12:38:03.907Z,171.72
2023-06-12T12:39:03.889Z,173.25
2023-06-12T12:40:03.871Z,171.32
2023-06-12T12:41:03.900Z,173.93
2023-06-12T12:42:11.232Z,175.92
2023-06-12T12:43:03.849Z,176.07
2023-06-12T12:44:03.953Z,176.25
2023-06-12T12:45:03.815Z,175.11
2023-06-12T12:46:03.790Z,168.98
2023-06-12T12:47:03.753Z,170.71
2023-06-12T12:48:03.901Z,170.00
2023-06-12T12:49:03.714Z,171.30
2023-06-12T12:50:06.767Z,177.83
2023-06-12T12:52:02.667Z,178.60
2023-06-12T12:53:03.934Z,181.17
2023-06-12T12:54:03.621Z,182.61
2023-06-12T12:55:03.603Z,191.07
2023-06-12T12:56:03.572Z,239.88
2023-06-12T12:57:03.569Z,250.76
2023-06-12T12:58:17.567Z,250.00
2023-06-12T12:59:03.523Z,250.05
2023-06-12T13:00:03.499Z,243.76
2023-06-12T13:01:03.487Z,236.61
2023-06-12T13:02:03.492Z,230.63
2023-06-12T13:03:03.508Z,230.13
2023-06-12T13:04:04.130Z,226.56
2023-06-12T13:05:03.449Z,229.87
2023-06-12T13:06:03.395Z,230.61